sensor_id;sensor_type;location;lat;lon;timestamp;pressure;altitude;pressure_sealevel;temperature;humidity
70248;BME280;57641;51.416;5.506;2023-03-15T00:00:54;101336.41;;;8.60;58.55
70248;BME280;57641;51.416;5.506;2023-03-15T00:03:23;101334.09;;;8.66;59.21
70248;BME280;57641;51.416;5.506;2023-03-15T00:05:49;101340.09;;;8.68;59.09
70248;BME280;57641;51.416;5.506;2023-03-15T00:08:17;101339.94;;;8.60;59.50
70248;BME280;57641;51.416;5.506;2023-03-15T00:10:45;101339.19;;;8.58;59.36
70248;BME280;57641;51.416;5.506;2023-03-15T00:13:12;101330.88;;;8.52;59.01
70248;BME280;57641;51.416;5.506;2023-03-15T00:15:45;101334.50;;;8.62;59.00
70248;BME280;57641;51.416;5.506;2023-03-15T00:18:12;101329.19;;;8.62;59.23
70248;BME280;57641;51.416;5.506;2023-03-15T00:20:37;101323.72;;;8.63;59.15
70248;BME280;57641;51.416;5.506;2023-03-15T00:23:03;101323.66;;;8.74;58.96
70248;BME280;57641;51.416;5.506;2023-03-15T00:25:28;101331.69;;;8.63;59.05
70248;BME280;57641;51.416;5.506;2023-03-15T00:27:54;101332.66;;;8.62;59.37
70248;BME280;57641;51.416;5.506;2023-03-15T00:30:20;101334.78;;;8.68;59.28
70248;BME280;57641;51.416;5.506;2023-03-15T00:32:45;101346.72;;;8.74;58.69
70248;BME280;57641;51.416;5.506;2023-03-15T00:35:11;101350.44;;;8.82;58.77
70248;BME280;57641;51.416;5.506;2023-03-15T00:37:42;101347.84;;;8.92;59.16
70248;BME280;57641;51.416;5.506;2023-03-15T00:40:09;101355.53;;;8.95;58.92
70248;BME280;57641;51.416;5.506;2023-03-15T00:42:37;101356.31;;;9.07;58.32
70248;BME280;57641;51.416;5.506;2023-03-15T00:45:03;101356.59;;;9.04;57.69
70248;BME280;57641;51.416;5.506;2023-03-15T00:47:29;101357.75;;;9.11;58.58
70248;BME280;57641;51.416;5.506;2023-03-15T00:49:54;101360.44;;;9.20;58.15
70248;BME280;57641;51.416;5.506;2023-03-15T00:52:20;101360.09;;;9.25;57.90
70248;BME280;57641;51.416;5.506;2023-03-15T00:54:53;101356.56;;;9.24;57.62
70248;BME280;57641;51.416;5.506;2023-03-15T00:57:20;101355.44;;;9.27;58.35
70248;BME280;57641;51.416;5.506;2023-03-15T00:59:46;101347.06;;;9.31;58.57
70248;BME280;57641;51.416;5.506;2023-03-15T01:02:12;101344.84;;;9.37;58.24
70248;BME280;57641;51.416;5.506;2023-03-15T01:04:38;101349.06;;;9.39;58.69
70248;BME280;57641;51.416;5.506;2023-03-15T01:07:04;101351.78;;;9.18;57.62
70248;BME280;57641;51.416;5.506;2023-03-15T01:09:30;101350.09;;;9.17;58.72
70248;BME280;57641;51.416;5.506;2023-03-15T01:11:57;101354.84;;;9.14;58.41
70248;BME280;57641;51.416;5.506;2023-03-15T01:14:23;101357.69;;;9.01;58.72
70248;BME280;57641;51.416;5.506;2023-03-15T01:16:49;101362.16;;;9.01;58.62
70248;BME280;57641;51.416;5.506;2023-03-15T01:19:15;101361.44;;;8.78;58.76
70248;BME280;57641;51.416;5.506;2023-03-15T01:21:41;101372.63;;;8.72;59.23
70248;BME280;57641;51.416;5.506;2023-03-15T01:24:11;101365.34;;;8.74;59.22
70248;BME280;57641;51.416;5.506;2023-03-15T01:26:37;101357.25;;;8.75;59.17
70248;BME280;57641;51.416;5.506;2023-03-15T01:29:03;101368.25;;;8.71;59.06
70248;BME280;57641;51.416;5.506;2023-03-15T01:31:29;101372.00;;;8.68;58.58
70248;BME280;57641;51.416;5.506;2023-03-15T01:33:56;101369.22;;;8.70;59.06
70248;BME280;57641;51.416;5.506;2023-03-15T01:36:22;101379.28;;;8.66;58.94
70248;BME280;57641;51.416;5.506;2023-03-15T01:38:48;101373.13;;;8.66;58.87
70248;BME280;57641;51.416;5.506;2023-03-15T01:41:18;101391.59;;;8.35;58.96
70248;BME280;57641;51.416;5.506;2023-03-15T01:43:44;101380.84;;;8.37;59.10
70248;BME280;57641;51.416;5.506;2023-03-15T01:46:20;101379.56;;;8.52;59.43
70248;BME280;57641;51.416;5.506;2023-03-15T01:48:54;101383.06;;;8.53;59.18
70248;BME280;57641;51.416;5.506;2023-03-15T01:56:59;101396.66;;;8.38;59.68
70248;BME280;57641;51.416;5.506;2023-03-15T01:59:30;101384.00;;;8.20;59.94
70248;BME280;57641;51.416;5.506;2023-03-15T02:01:58;101390.16;;;8.20;60.91
70248;BME280;57641;51.416;5.506;2023-03-15T02:04:32;101389.06;;;8.34;60.23
70248;BME280;57641;51.416;5.506;2023-03-15T02:07:00;101387.50;;;8.20;59.89
70248;BME280;57641;51.416;5.506;2023-03-15T02:10:05;101384.22;;;8.28;60.92
70248;BME280;57641;51.416;5.506;2023-03-15T02:12:34;101385.44;;;8.24;60.78
70248;BME280;57641;51.416;5.506;2023-03-15T02:15:05;101399.19;;;8.29;61.04
70248;BME280;57641;51.416;5.506;2023-03-15T02:17:40;101395.56;;;8.41;60.22
70248;BME280;57641;51.416;5.506;2023-03-15T02:23:12;101408.00;;;8.29;60.13
70248;BME280;57641;51.416;5.506;2023-03-15T02:28:14;101413.72;;;8.14;61.69
70248;BME280;57641;51.416;5.506;2023-03-15T02:30:40;101424.09;;;8.17;61.35
70248;BME280;57641;51.416;5.506;2023-03-15T02:33:12;101430.00;;;8.09;60.90
70248;BME280;57641;51.416;5.506;2023-03-15T02:35:39;101434.25;;;7.89;61.38
70248;BME280;57641;51.416;5.506;2023-03-15T02:38:05;101433.41;;;8.00;61.31
70248;BME280;57641;51.416;5.506;2023-03-15T02:40:31;101422.19;;;7.85;61.47
70248;BME280;57641;51.416;5.506;2023-03-15T02:42:59;101424.00;;;7.62;61.94
70248;BME280;57641;51.416;5.506;2023-03-15T02:45:28;101429.09;;;7.66;61.93
70248;BME280;57641;51.416;5.506;2023-03-15T02:47:56;101421.97;;;7.55;61.97
70248;BME280;57641;51.416;5.506;2023-03-15T02:50:22;101429.44;;;7.72;61.89
70248;BME280;57641;51.416;5.506;2023-03-15T02:52:48;101445.72;;;7.45;62.42
70248;BME280;57641;51.416;5.506;2023-03-15T02:55:13;101445.56;;;7.36;63.07
70248;BME280;57641;51.416;5.506;2023-03-15T02:57:41;101448.03;;;7.61;63.30
70248;BME280;57641;51.416;5.506;2023-03-15T03:00:07;101451.28;;;7.76;62.83
70248;BME280;57641;51.416;5.506;2023-03-15T03:02:41;101448.84;;;7.73;61.39
70248;BME280;57641;51.416;5.506;2023-03-15T03:05:07;101444.28;;;7.75;62.08
70248;BME280;57641;51.416;5.506;2023-03-15T03:07:34;101451.88;;;7.68;62.30
70248;BME280;57641;51.416;5.506;2023-03-15T03:09:59;101460.09;;;7.76;61.71
70248;BME280;57641;51.416;5.506;2023-03-15T03:12:25;101470.09;;;7.84;61.90
70248;BME280;57641;51.416;5.506;2023-03-15T03:14:50;101463.84;;;7.85;61.09
70248;BME280;57641;51.416;5.506;2023-03-15T03:17:16;101478.06;;;7.84;62.05
70248;BME280;57641;51.416;5.506;2023-03-15T03:19:42;101481.34;;;7.87;61.60
70248;BME280;57641;51.416;5.506;2023-03-15T03:22:10;101482.78;;;7.91;61.37
70248;BME280;57641;51.416;5.506;2023-03-15T03:24:38;101489.91;;;8.02;61.15
70248;BME280;57641;51.416;5.506;2023-03-15T03:27:04;101493.25;;;8.04;61.01
70248;BME280;57641;51.416;5.506;2023-03-15T03:29:33;101498.81;;;8.01;60.75
70248;BME280;57641;51.416;5.506;2023-03-15T03:31:58;101496.66;;;8.06;60.44
70248;BME280;57641;51.416;5.506;2023-03-15T03:34:25;101491.72;;;8.01;60.46
70248;BME280;57641;51.416;5.506;2023-03-15T03:36:50;101497.13;;;8.00;60.69
70248;BME280;57641;51.416;5.506;2023-03-15T03:39:15;101505.47;;;7.95;60.83
70248;BME280;57641;51.416;5.506;2023-03-15T03:41:41;101510.19;;;8.03;60.34
70248;BME280;57641;51.416;5.506;2023-03-15T03:44:06;101516.69;;;7.99;59.96
70248;BME280;57641;51.416;5.506;2023-03-15T03:46:32;101503.53;;;7.86;60.42
70248;BME280;57641;51.416;5.506;2023-03-15T03:49:00;101511.03;;;7.92;60.37
70248;BME280;57641;51.416;5.506;2023-03-15T03:51:26;101506.78;;;7.90;60.27
70248;BME280;57641;51.416;5.506;2023-03-15T03:53:51;101508.47;;;7.91;60.43
70248;BME280;57641;51.416;5.506;2023-03-15T03:56:16;101507.53;;;7.92;60.22
70248;BME280;57641;51.416;5.506;2023-03-15T03:58:42;101506.06;;;7.88;60.28
70248;BME280;57641;51.416;5.506;2023-03-15T04:01:07;101511.13;;;7.91;60.33
70248;BME280;57641;51.416;5.506;2023-03-15T04:03:33;101521.38;;;7.84;59.55
70248;BME280;57641;51.416;5.506;2023-03-15T04:05:59;101528.75;;;7.92;59.66
70248;BME280;57641;51.416;5.506;2023-03-15T04:08:25;101530.78;;;7.88;59.63
70248;BME280;57641;51.416;5.506;2023-03-15T04:10:55;101534.53;;;7.86;59.98
70248;BME280;57641;51.416;5.506;2023-03-15T04:13:28;101549.63;;;7.85;59.33
70248;BME280;57641;51.416;5.506;2023-03-15T04:15:54;101550.56;;;7.73;59.62
70248;BME280;57641;51.416;5.506;2023-03-15T04:18:22;101544.06;;;7.66;59.35
70248;BME280;57641;51.416;5.506;2023-03-15T04:20:47;101554.31;;;7.71;60.22
70248;BME280;57641;51.416;5.506;2023-03-15T04:23:14;101554.16;;;7.72;59.99
70248;BME280;57641;51.416;5.506;2023-03-15T04:25:41;101557.81;;;7.71;59.81
70248;BME280;57641;51.416;5.506;2023-03-15T04:28:08;101561.53;;;7.69;59.76
70248;BME280;57641;51.416;5.506;2023-03-15T04:30:36;101572.88;;;7.59;59.40
70248;BME280;57641;51.416;5.506;2023-03-15T04:33:02;101571.06;;;7.60;60.12
70248;BME280;57641;51.416;5.506;2023-03-15T04:35:30;101568.41;;;7.60;59.57
70248;BME280;57641;51.416;5.506;2023-03-15T04:37:56;101579.03;;;7.60;59.50
70248;BME280;57641;51.416;5.506;2023-03-15T04:40:23;101581.38;;;7.52;60.09
70248;BME280;57641;51.416;5.506;2023-03-15T04:42:52;101590.19;;;7.52;59.78
70248;BME280;57641;51.416;5.506;2023-03-15T04:45:24;101576.47;;;7.58;60.12
70248;BME280;57641;51.416;5.506;2023-03-15T04:47:52;101592.38;;;7.58;59.94
70248;BME280;57641;51.416;5.506;2023-03-15T04:50:18;101595.28;;;7.55;59.58
70248;BME280;57641;51.416;5.506;2023-03-15T04:52:44;101599.84;;;7.53;59.34
70248;BME280;57641;51.416;5.506;2023-03-15T04:55:10;101594.06;;;7.48;59.71
70248;BME280;57641;51.416;5.506;2023-03-15T04:57:41;101594.78;;;7.50;60.10
70248;BME280;57641;51.416;5.506;2023-03-15T05:00:11;101596.47;;;7.51;59.70
70248;BME280;57641;51.416;5.506;2023-03-15T05:02:40;101585.81;;;7.40;59.59
70248;BME280;57641;51.416;5.506;2023-03-15T05:05:10;101599.34;;;7.48;59.64
70248;BME280;57641;51.416;5.506;2023-03-15T05:07:36;101606.38;;;7.49;60.09
70248;BME280;57641;51.416;5.506;2023-03-15T05:10:04;101611.44;;;7.52;59.45
70248;BME280;57641;51.416;5.506;2023-03-15T05:12:30;101613.38;;;7.50;59.13
70248;BME280;57641;51.416;5.506;2023-03-15T05:14:56;101615.16;;;7.50;59.27
70248;BME280;57641;51.416;5.506;2023-03-15T05:17:22;101616.72;;;7.52;59.08
70248;BME280;57641;51.416;5.506;2023-03-15T05:19:48;101623.63;;;7.55;58.82
70248;BME280;57641;51.416;5.506;2023-03-15T05:22:14;101631.44;;;7.56;58.92
70248;BME280;57641;51.416;5.506;2023-03-15T05:24:40;101627.97;;;7.56;58.99
70248;BME280;57641;51.416;5.506;2023-03-15T05:27:05;101628.28;;;7.51;58.97
70248;BME280;57641;51.416;5.506;2023-03-15T05:29:31;101647.56;;;7.42;58.36
70248;BME280;57641;51.416;5.506;2023-03-15T05:31:56;101654.16;;;7.37;58.35
70248;BME280;57641;51.416;5.506;2023-03-15T05:34:22;101646.56;;;7.32;58.77
70248;BME280;57641;51.416;5.506;2023-03-15T05:36:51;101657.59;;;7.26;58.48
70248;BME280;57641;51.416;5.506;2023-03-15T05:39:18;101652.53;;;7.23;58.74
70248;BME280;57641;51.416;5.506;2023-03-15T05:42:04;101659.03;;;7.19;58.36
70248;BME280;57641;51.416;5.506;2023-03-15T05:44:49;101651.69;;;7.22;58.16
70248;BME280;57641;51.416;5.506;2023-03-15T05:47:35;101661.56;;;7.20;58.22
70248;BME280;57641;51.416;5.506;2023-03-15T05:50:20;101656.16;;;7.22;58.16
70248;BME280;57641;51.416;5.506;2023-03-15T05:53:07;101655.19;;;7.23;58.43
70248;BME280;57641;51.416;5.506;2023-03-15T05:55:52;101662.06;;;7.26;58.05
70248;BME280;57641;51.416;5.506;2023-03-15T05:58:24;101655.19;;;7.23;57.80
70248;BME280;57641;51.416;5.506;2023-03-15T06:00:49;101666.84;;;7.20;57.64
70248;BME280;57641;51.416;5.506;2023-03-15T06:03:15;101665.50;;;7.15;57.59
70248;BME280;57641;51.416;5.506;2023-03-15T06:05:41;101678.25;;;7.10;57.58
70248;BME280;57641;51.416;5.506;2023-03-15T06:08:07;101687.28;;;7.07;58.25
70248;BME280;57641;51.416;5.506;2023-03-15T06:10:32;101691.22;;;7.02;58.23
70248;BME280;57641;51.416;5.506;2023-03-15T06:12:59;101687.72;;;7.01;58.27
70248;BME280;57641;51.416;5.506;2023-03-15T06:15:25;101691.41;;;6.99;58.80
70248;BME280;57641;51.416;5.506;2023-03-15T06:17:50;101684.13;;;7.02;58.42
70248;BME280;57641;51.416;5.506;2023-03-15T06:20:16;101693.97;;;7.00;59.07
70248;BME280;57641;51.416;5.506;2023-03-15T06:22:45;101692.16;;;7.01;59.29
70248;BME280;57641;51.416;5.506;2023-03-15T06:25:10;101697.56;;;6.99;59.07
70248;BME280;57641;51.416;5.506;2023-03-15T06:27:36;101703.81;;;6.98;59.39
70248;BME280;57641;51.416;5.506;2023-03-15T06:30:03;101715.59;;;6.94;59.12
70248;BME280;57641;51.416;5.506;2023-03-15T06:32:28;101718.69;;;7.01;59.85
70248;BME280;57641;51.416;5.506;2023-03-15T06:34:57;101724.84;;;7.01;60.06
70248;BME280;57641;51.416;5.506;2023-03-15T06:37:22;101730.31;;;7.11;60.00
70248;BME280;57641;51.416;5.506;2023-03-15T06:39:48;101734.34;;;7.16;59.78
70248;BME280;57641;51.416;5.506;2023-03-15T06:42:15;101742.19;;;7.18;59.63
70248;BME280;57641;51.416;5.506;2023-03-15T06:44:41;101750.34;;;7.15;59.86
70248;BME280;57641;51.416;5.506;2023-03-15T06:47:11;101756.81;;;7.24;60.53
70248;BME280;57641;51.416;5.506;2023-03-15T06:49:40;101766.75;;;7.33;60.63
70248;BME280;57641;51.416;5.506;2023-03-15T06:52:06;101774.38;;;7.37;60.89
70248;BME280;57641;51.416;5.506;2023-03-15T06:54:32;101768.31;;;7.48;61.32
70248;BME280;57641;51.416;5.506;2023-03-15T06:56:57;101771.59;;;7.51;60.98
70248;BME280;57641;51.416;5.506;2023-03-15T06:59:24;101776.88;;;7.51;60.88
70248;BME280;57641;51.416;5.506;2023-03-15T07:01:50;101772.00;;;7.58;60.92
70248;BME280;57641;51.416;5.506;2023-03-15T07:04:15;101776.44;;;7.57;61.29
70248;BME280;57641;51.416;5.506;2023-03-15T07:06:41;101775.81;;;7.67;61.84
70248;BME280;57641;51.416;5.506;2023-03-15T07:09:06;101782.34;;;7.74;61.45
70248;BME280;57641;51.416;5.506;2023-03-15T07:11:32;101782.75;;;7.80;61.48
70248;BME280;57641;51.416;5.506;2023-03-15T07:13:59;101792.41;;;7.81;61.41
70248;BME280;57641;51.416;5.506;2023-03-15T07:16:24;101791.56;;;7.81;61.00
70248;BME280;57641;51.416;5.506;2023-03-15T07:18:50;101795.44;;;7.88;61.42
70248;BME280;57641;51.416;5.506;2023-03-15T07:21:17;101806.34;;;7.96;61.51
70248;BME280;57641;51.416;5.506;2023-03-15T07:23:43;101805.16;;;8.00;61.50
70248;BME280;57641;51.416;5.506;2023-03-15T07:26:08;101814.09;;;7.99;61.02
70248;BME280;57641;51.416;5.506;2023-03-15T07:28:34;101822.28;;;7.96;61.30
70248;BME280;57641;51.416;5.506;2023-03-15T07:31:01;101812.28;;;7.99;61.50
70248;BME280;57641;51.416;5.506;2023-03-15T07:33:29;101823.53;;;8.03;61.91
70248;BME280;57641;51.416;5.506;2023-03-15T07:35:55;101829.13;;;8.11;62.08
70248;BME280;57641;51.416;5.506;2023-03-15T07:38:22;101833.38;;;8.14;62.30
70248;BME280;57641;51.416;5.506;2023-03-15T07:40:48;101845.13;;;8.22;62.38
70248;BME280;57641;51.416;5.506;2023-03-15T07:43:14;101850.81;;;8.29;61.50
70248;BME280;57641;51.416;5.506;2023-03-15T07:45:39;101850.53;;;8.21;62.09
70248;BME280;57641;51.416;5.506;2023-03-15T07:48:06;101847.44;;;8.27;62.18
70248;BME280;57641;51.416;5.506;2023-03-15T07:50:32;101856.53;;;8.35;62.24
70248;BME280;57641;51.416;5.506;2023-03-15T07:52:57;101858.41;;;8.22;60.87
70248;BME280;57641;51.416;5.506;2023-03-15T07:55:24;101862.00;;;8.34;61.69
70248;BME280;57641;51.416;5.506;2023-03-15T07:57:50;101876.19;;;8.45;62.10
70248;BME280;57641;51.416;5.506;2023-03-15T08:00:21;101870.38;;;8.52;62.03
70248;BME280;57641;51.416;5.506;2023-03-15T08:02:48;101874.47;;;8.44;61.10
70248;BME280;57641;51.416;5.506;2023-03-15T08:05:14;101884.41;;;8.54;61.45
70248;BME280;57641;51.416;5.506;2023-03-15T08:07:39;101880.69;;;8.56;61.54
70248;BME280;57641;51.416;5.506;2023-03-15T08:10:06;101886.50;;;8.61;61.88
70248;BME280;57641;51.416;5.506;2023-03-15T08:12:31;101890.72;;;8.64;60.77
70248;BME280;57641;51.416;5.506;2023-03-15T08:15:00;101897.19;;;8.72;61.55
70248;BME280;57641;51.416;5.506;2023-03-15T08:17:26;101909.78;;;8.81;61.56
70248;BME280;57641;51.416;5.506;2023-03-15T08:19:51;101913.41;;;8.80;61.14
70248;BME280;57641;51.416;5.506;2023-03-15T08:22:16;101913.28;;;8.82;59.72
70248;BME280;57641;51.416;5.506;2023-03-15T08:24:42;101909.19;;;8.89;60.22
70248;BME280;57641;51.416;5.506;2023-03-15T08:27:09;101907.50;;;8.99;59.90
70248;BME280;57641;51.416;5.506;2023-03-15T08:29:35;101917.69;;;9.05;60.01
70248;BME280;57641;51.416;5.506;2023-03-15T08:32:02;101915.25;;;8.91;58.16
70248;BME280;57641;51.416;5.506;2023-03-15T08:34:28;101920.31;;;8.94;58.19
70248;BME280;57641;51.416;5.506;2023-03-15T08:36:53;101919.50;;;9.05;58.88
70248;BME280;57641;51.416;5.506;2023-03-15T08:39:19;101923.03;;;9.16;58.93
70248;BME280;57641;51.416;5.506;2023-03-15T08:41:44;101920.00;;;9.21;59.35
70248;BME280;57641;51.416;5.506;2023-03-15T08:44:11;101915.94;;;9.28;58.35
70248;BME280;57641;51.416;5.506;2023-03-15T08:46:37;101924.13;;;9.14;57.16
70248;BME280;57641;51.416;5.506;2023-03-15T08:49:03;101927.16;;;9.09;57.93
70248;BME280;57641;51.416;5.506;2023-03-15T08:51:28;101932.28;;;9.35;57.63
70248;BME280;57641;51.416;5.506;2023-03-15T08:53:55;101934.94;;;9.35;56.09
70248;BME280;57641;51.416;5.506;2023-03-15T08:56:23;101938.09;;;9.51;56.50
70248;BME280;57641;51.416;5.506;2023-03-15T08:58:49;101941.97;;;9.58;55.76
70248;BME280;57641;51.416;5.506;2023-03-15T09:01:15;101938.44;;;9.57;54.55
70248;BME280;57641;51.416;5.506;2023-03-15T09:03:41;101940.91;;;9.71;55.29
70248;BME280;57641;51.416;5.506;2023-03-15T09:06:08;101945.22;;;9.84;54.61
70248;BME280;57641;51.416;5.506;2023-03-15T09:08:33;101945.97;;;9.74;53.38
70248;BME280;57641;51.416;5.506;2023-03-15T09:10:59;101947.28;;;9.91;54.50
70248;BME280;57641;51.416;5.506;2023-03-15T09:13:26;101945.13;;;9.96;53.75
70248;BME280;57641;51.416;5.506;2023-03-15T09:15:53;101949.69;;;9.94;52.97
70248;BME280;57641;51.416;5.506;2023-03-15T09:18:20;101951.78;;;9.80;52.83
70248;BME280;57641;51.416;5.506;2023-03-15T09:20:46;101952.72;;;9.90;53.88
70248;BME280;57641;51.416;5.506;2023-03-15T09:23:12;101951.78;;;10.02;53.50
70248;BME280;57641;51.416;5.506;2023-03-15T09:25:38;101952.13;;;10.08;53.54
70248;BME280;57641;51.416;5.506;2023-03-15T09:28:05;101952.59;;;10.13;52.71
70248;BME280;57641;51.416;5.506;2023-03-15T09:30:32;101957.97;;;10.25;51.73
70248;BME280;57641;51.416;5.506;2023-03-15T09:32:57;101956.22;;;10.35;52.54
70248;BME280;57641;51.416;5.506;2023-03-15T09:35:23;101957.47;;;10.31;49.82
70248;BME280;57641;51.416;5.506;2023-03-15T09:37:49;101954.41;;;10.35;49.63
70248;BME280;57641;51.416;5.506;2023-03-15T09:40:31;101963.75;;;10.30;51.31
70248;BME280;57641;51.416;5.506;2023-03-15T09:48:29;101957.09;;;10.24;50.91
70248;BME280;57641;51.416;5.506;2023-03-15T09:51:05;101961.00;;;10.20;51.21
70248;BME280;57641;51.416;5.506;2023-03-15T09:53:37;101964.38;;;10.22;49.99
70248;BME280;57641;51.416;5.506;2023-03-15T09:58:49;101963.63;;;10.31;49.69
70248;BME280;57641;51.416;5.506;2023-03-15T10:01:17;101966.78;;;10.36;48.67
70248;BME280;57641;51.416;5.506;2023-03-15T10:03:51;101968.31;;;10.50;47.78
70248;BME280;57641;51.416;5.506;2023-03-15T10:06:27;101965.81;;;10.69;48.38
70248;BME280;57641;51.416;5.506;2023-03-15T10:08:55;101970.13;;;10.81;47.32
70248;BME280;57641;51.416;5.506;2023-03-15T10:24:38;101960.28;;;10.93;46.06
70248;BME280;57641;51.416;5.506;2023-03-15T10:29:47;101968.53;;;11.11;46.78
70248;BME280;57641;51.416;5.506;2023-03-15T10:32:19;101963.91;;;11.33;46.39
70248;BME280;57641;51.416;5.506;2023-03-15T10:34:48;101966.34;;;11.36;46.07
70248;BME280;57641;51.416;5.506;2023-03-15T10:37:17;101961.38;;;11.32;43.85
70248;BME280;57641;51.416;5.506;2023-03-15T10:39:49;101967.25;;;11.26;43.27
70248;BME280;57641;51.416;5.506;2023-03-15T10:42:26;101967.97;;;11.07;43.01
70248;BME280;57641;51.416;5.506;2023-03-15T10:44:52;101983.00;;;11.08;44.57
70248;BME280;57641;51.416;5.506;2023-03-15T10:47:20;101979.59;;;11.06;44.15
70248;BME280;57641;51.416;5.506;2023-03-15T10:49:46;101981.56;;;11.04;45.06
70248;BME280;57641;51.416;5.506;2023-03-15T10:52:37;101980.91;;;11.12;44.90
70248;BME280;57641;51.416;5.506;2023-03-15T10:55:13;101993.28;;;11.13;45.11
70248;BME280;57641;51.416;5.506;2023-03-15T10:57:51;101994.69;;;10.96;41.82
70248;BME280;57641;51.416;5.506;2023-03-15T11:00:30;101989.13;;;10.99;41.33
70248;BME280;57641;51.416;5.506;2023-03-15T11:03:18;101999.34;;;11.15;43.48
70248;BME280;57641;51.416;5.506;2023-03-15T11:05:47;101997.09;;;11.31;42.72
70248;BME280;57641;51.416;5.506;2023-03-15T11:08:16;102005.63;;;11.46;42.51
70248;BME280;57641;51.416;5.506;2023-03-15T11:10:43;102004.69;;;11.56;41.78
70248;BME280;57641;51.416;5.506;2023-03-15T11:13:20;102006.13;;;11.60;42.23
70248;BME280;57641;51.416;5.506;2023-03-15T11:21:21;102014.59;;;11.44;44.05
70248;BME280;57641;51.416;5.506;2023-03-15T11:23:49;102015.56;;;11.43;43.88
70248;BME280;57641;51.416;5.506;2023-03-15T11:26:21;102023.19;;;11.48;45.79
70248;BME280;57641;51.416;5.506;2023-03-15T11:29:14;102022.47;;;11.46;45.94
70248;BME280;57641;51.416;5.506;2023-03-15T11:31:41;102029.81;;;11.54;46.28
70248;BME280;57641;51.416;5.506;2023-03-15T11:34:44;102025.09;;;11.78;45.84
70248;BME280;57641;51.416;5.506;2023-03-15T11:37:18;102015.63;;;11.95;43.97
70248;BME280;57641;51.416;5.506;2023-03-15T11:40:10;102017.31;;;12.26;42.31
70248;BME280;57641;51.416;5.506;2023-03-15T11:43:04;102014.97;;;12.42;41.27
70248;BME280;57641;51.416;5.506;2023-03-15T11:45:57;102013.69;;;12.37;39.49
70248;BME280;57641;51.416;5.506;2023-03-15T11:48:34;102008.78;;;12.51;38.93
70248;BME280;57641;51.416;5.506;2023-03-15T11:51:06;102012.44;;;12.50;38.83
70248;BME280;57641;51.416;5.506;2023-03-15T11:53:48;102012.84;;;12.55;39.03
70248;BME280;57641;51.416;5.506;2023-03-15T11:59:10;102004.88;;;12.15;38.94
70248;BME280;57641;51.416;5.506;2023-03-15T12:01:49;102010.25;;;12.25;39.13
70248;BME280;57641;51.416;5.506;2023-03-15T12:06:50;101999.88;;;12.41;38.23
70248;BME280;57641;51.416;5.506;2023-03-15T12:11:57;102001.19;;;12.16;38.50
70248;BME280;57641;51.416;5.506;2023-03-15T12:14:27;101992.59;;;12.03;37.43
70248;BME280;57641;51.416;5.506;2023-03-15T12:19:59;101988.88;;;12.35;39.01
70248;BME280;57641;51.416;5.506;2023-03-15T12:22:30;101993.94;;;12.28;37.65
70248;BME280;57641;51.416;5.506;2023-03-15T12:24:58;101988.75;;;12.26;36.94
70248;BME280;57641;51.416;5.506;2023-03-15T12:27:27;101994.84;;;12.08;37.78
70248;BME280;57641;51.416;5.506;2023-03-15T12:29:58;101985.31;;;12.15;36.53
70248;BME280;57641;51.416;5.506;2023-03-15T12:32:26;101991.34;;;12.17;36.28
70248;BME280;57641;51.416;5.506;2023-03-15T12:34:58;101978.59;;;12.20;36.95
70248;BME280;57641;51.416;5.506;2023-03-15T12:37:44;101988.03;;;12.34;36.22
70248;BME280;57641;51.416;5.506;2023-03-15T12:56:32;101987.25;;;12.72;31.28
70248;BME280;57641;51.416;5.506;2023-03-15T13:01:59;101987.84;;;12.95;32.83
70248;BME280;57641;51.416;5.506;2023-03-15T13:04:27;101998.28;;;13.27;32.10
70248;BME280;57641;51.416;5.506;2023-03-15T13:07:18;101998.69;;;13.03;30.36
70248;BME280;57641;51.416;5.506;2023-03-15T13:10:05;101986.88;;;13.15;30.02
70248;BME280;57641;51.416;5.506;2023-03-15T13:12:54;101991.22;;;13.35;31.39
70248;BME280;57641;51.416;5.506;2023-03-15T13:15:30;101985.16;;;13.33;30.48
70248;BME280;57641;51.416;5.506;2023-03-15T13:18:10;101985.03;;;13.25;29.83
70248;BME280;57641;51.416;5.506;2023-03-15T13:23:32;101994.75;;;13.36;31.96
70248;BME280;57641;51.416;5.506;2023-03-15T13:28:50;101994.91;;;13.15;30.35
70248;BME280;57641;51.416;5.506;2023-03-15T13:31:20;101997.97;;;13.01;31.25
70248;BME280;57641;51.416;5.506;2023-03-15T13:33:48;101983.75;;;13.10;32.08
70248;BME280;57641;51.416;5.506;2023-03-15T13:36:18;101986.16;;;13.32;32.00
70248;BME280;57641;51.416;5.506;2023-03-15T13:38:49;101981.59;;;13.52;31.85
70248;BME280;57641;51.416;5.506;2023-03-15T13:41:24;101984.34;;;13.14;32.55
70248;BME280;57641;51.416;5.506;2023-03-15T13:43:52;101979.94;;;13.41;33.30
70248;BME280;57641;51.416;5.506;2023-03-15T13:46:20;101990.19;;;13.56;31.54
70248;BME280;57641;51.416;5.506;2023-03-15T13:48:50;101989.94;;;13.39;30.63
70248;BME280;57641;51.416;5.506;2023-03-15T13:51:17;101985.69;;;13.56;31.13
70248;BME280;57641;51.416;5.506;2023-03-15T13:53:50;101982.22;;;13.27;30.92
70248;BME280;57641;51.416;5.506;2023-03-15T13:56:26;101986.78;;;13.53;31.80
70248;BME280;57641;51.416;5.506;2023-03-15T13:58:52;101995.44;;;13.47;31.08
70248;BME280;57641;51.416;5.506;2023-03-15T14:01:21;101997.34;;;13.65;31.46
70248;BME280;57641;51.416;5.506;2023-03-15T14:03:56;101994.84;;;13.63;31.07
70248;BME280;57641;51.416;5.506;2023-03-15T14:06:25;101990.13;;;13.75;29.14
70248;BME280;57641;51.416;5.506;2023-03-15T14:09:00;101995.53;;;13.65;29.98
70248;BME280;57641;51.416;5.506;2023-03-15T14:11:35;101989.53;;;13.81;30.72
70248;BME280;57641;51.416;5.506;2023-03-15T14:14:22;101991.91;;;13.93;30.44
70248;BME280;57641;51.416;5.506;2023-03-15T14:16:50;101995.25;;;14.05;30.54
70248;BME280;57641;51.416;5.506;2023-03-15T14:19:29;101989.88;;;14.05;29.88
70248;BME280;57641;51.416;5.506;2023-03-15T14:21:58;101990.09;;;14.21;31.22
70248;BME280;57641;51.416;5.506;2023-03-15T14:24:29;102004.53;;;14.11;28.74